Time;durP1;ratioP1;P1;durP2;ratioP2;P2;SDS_P1;SDS_P2;PMS_P1;PMS_P2;Temp;Humidity;BMP_temperature;BMP_pressure;BME280_temperature;BME280_humidity;BME280_pressure;Samples;Min_cycle;Max_cycle;Signal;HPM_P1;HPM_P2
2023/02/01 00:02:02;;;;;;;31.63;4.18;;;;;;;8.29;61.54;100748.00;5073626;27;98858;-70
2023/02/01 00:04:28;;;;;;;34.20;3.85;;;;;;;8.45;61.99;100745.88;5078265;27;97226;-69
2023/02/01 00:06:55;;;;;;;26.88;3.22;;;;;;;8.67;61.39;100735.59;5062639;27;99047;-69
2023/02/01 00:09:21;;;;;;;30.27;3.90;;;;;;;8.45;61.99;100755.53;5073613;27;98910;-70
2023/02/01 00:11:49;;;;;;;35.90;3.40;;;;;;;8.54;61.95;100755.28;5073009;27;96761;-69
2023/02/01 00:14:17;;;;;;;32.20;3.78;;;;;;;8.42;61.48;100755.59;5077065;27;96802;-69
2023/02/01 00:16:43;;;;;;;27.20;3.55;;;;;;;8.46;61.00;100752.00;5071905;27;99307;-69
2023/02/01 00:19:13;;;;;;;23.95;3.58;;;;;;;8.49;60.99;100750.13;5076630;27;98927;-70
2023/02/01 00:21:39;;;;;;;17.73;2.63;;;;;;;8.55;60.41;100746.47;5077808;27;96849;-72
2023/02/01 00:24:07;;;;;;;27.95;3.97;;;;;;;8.18;60.41;100744.78;5079415;27;97065;-70
2023/02/01 00:26:36;;;;;;;23.63;3.63;;;;;;;7.84;60.98;100747.38;5073550;27;99047;-71
2023/02/01 00:29:06;;;;;;;32.45;3.70;;;;;;;8.38;60.38;100753.06;5073131;27;99034;-70
2023/02/01 00:31:33;;;;;;;23.75;3.75;;;;;;;8.45;59.53;100739.75;5071522;27;96811;-70
2023/02/01 00:33:59;;;;;;;23.75;4.20;;;;;;;8.35;59.62;100747.88;5072548;27;97120;-70
2023/02/01 00:36:26;;;;;;;21.30;3.58;;;;;;;8.47;58.67;100749.31;5068621;27;99198;-69
2023/02/01 00:38:52;;;;;;;18.17;2.88;;;;;;;8.27;59.60;100748.97;5075037;27;98858;-70
2023/02/01 00:41:21;;;;;;;18.92;2.60;;;;;;;7.94;59.88;100737.53;5066613;27;97675;-69
2023/02/01 00:43:48;;;;;;;13.25;2.53;;;;;;;7.95;60.82;100740.09;5067738;27;97173;-70
2023/02/01 00:46:18;;;;;;;27.05;3.70;;;;;;;7.83;60.51;100757.94;5071284;27;98879;-69
2023/02/01 00:48:45;;;;;;;23.02;2.95;;;;;;;7.65;61.36;100761.88;5075644;27;99726;-68
2023/02/01 00:51:13;;;;;;;16.83;2.30;;;;;;;7.64;61.85;100764.53;5072761;27;97084;-69
2023/02/01 00:53:40;;;;;;;23.65;2.88;;;;;;;7.92;61.57;100761.22;5064523;27;96867;-68
2023/02/01 00:56:07;;;;;;;25.02;2.50;;;;;;;8.06;60.84;100760.91;5064258;27;99678;-67
2023/02/01 00:58:34;;;;;;;23.33;2.72;;;;;;;8.10;61.16;100764.31;5078582;27;98670;-68
2023/02/01 01:01:06;;;;;;;20.73;2.92;;;;;;;7.79;61.76;100770.31;5062014;27;96972;-68
2023/02/01 01:03:36;;;;;;;22.33;2.97;;;;;;;7.92;62.15;100776.16;5068051;27;97157;-72
2023/02/01 01:06:06;;;;;;;25.55;2.50;;;;;;;8.03;61.82;100774.13;5066932;27;98234;-70
2023/02/01 01:08:33;;;;;;;19.25;2.50;;;;;;;8.16;61.55;100766.78;5070257;27;98950;-68
2023/02/01 01:10:59;;;;;;;23.00;3.30;;;;;;;8.21;61.85;100757.84;5064695;27;97418;-71
2023/02/01 01:13:26;;;;;;;16.25;2.60;;;;;;;8.11;61.55;100747.63;5070621;27;97369;-70
2023/02/01 01:15:52;;;;;;;16.27;2.40;;;;;;;8.13;61.96;100754.56;5067907;27;99238;-69
2023/02/01 01:18:19;;;;;;;9.82;1.60;;;;;;;7.92;61.91;100755.09;5073945;27;99048;-69
2023/02/01 01:20:48;;;;;;;19.60;2.15;;;;;;;7.84;62.75;100754.41;5080134;27;97090;-70
2023/02/01 01:23:14;;;;;;;22.65;2.42;;;;;;;7.06;64.67;100752.69;5085263;27;96942;-69
2023/02/01 01:25:41;;;;;;;25.02;2.08;;;;;;;7.39;64.19;100744.06;5078435;27;97824;-70
2023/02/01 01:28:08;;;;;;;12.35;1.67;;;;;;;7.43;63.63;100740.47;5067275;27;99258;-70
2023/02/01 01:30:35;;;;;;;25.90;3.25;;;;;;;7.59;63.54;100733.09;5069466;27;98619;-70
2023/02/01 01:33:01;;;;;;;21.05;2.40;;;;;;;7.74;62.49;100737.16;5070873;27;97443;-68
2023/02/01 01:35:29;;;;;;;19.65;2.70;;;;;;;7.88;61.97;100724.50;5068024;27;99038;-70
2023/02/01 01:37:57;;;;;;;14.10;2.35;;;;;;;7.86;62.29;100723.69;5080755;27;99083;-70
2023/02/01 01:40:24;;;;;;;17.90;2.60;;;;;;;7.68;62.67;100724.97;5076544;27;96805;-70
2023/02/01 01:42:53;;;;;;;20.73;2.47;;;;;;;7.75;62.11;100725.69;5067468;27;96959;-69
2023/02/01 01:45:25;;;;;;;17.15;2.20;;;;;;;7.71;62.53;100724.91;5072639;27;101267;-69
2023/02/01 01:47:54;;;;;;;20.67;3.60;;;;;;;7.52;62.92;100713.97;5067814;27;99536;-70
2023/02/01 01:50:25;;;;;;;22.42;4.22;;;;;;;7.66;62.17;100713.66;5075142;27;97915;-70
2023/02/01 01:52:54;;;;;;;13.65;2.05;;;;;;;7.72;62.09;100710.00;5072925;27;96949;-69
2023/02/01 01:55:25;;;;;;;22.63;2.88;;;;;;;7.61;61.70;100713.72;5071805;27;102821;-71
2023/02/01 01:57:58;;;;;;;22.70;2.72;;;;;;;7.94;61.03;100716.47;5075017;27;98990;-70
2023/02/01 02:00:24;;;;;;;16.33;1.90;;;;;;;7.43;61.72;100718.56;5072859;27;96805;-70
2023/02/01 02:02:57;;;;;;;17.13;2.30;;;;;;;7.81;61.59;100718.50;5071015;27;98392;-70
2023/02/01 02:05:24;;;;;;;23.48;2.38;;;;;;;7.86;61.17;100716.66;5068882;27;97977;-69
2023/02/01 02:07:53;;;;;;;24.42;3.00;;;;;;;7.56;61.79;100713.00;5079895;27;99477;-70
2023/02/01 02:10:20;;;;;;;31.52;2.85;;;;;;;7.45;62.29;100728.16;5065576;27;97728;-69
2023/02/01 02:12:49;;;;;;;16.50;2.35;;;;;;;7.46;62.15;100721.13;5070255;27;98602;-69
2023/02/01 02:15:17;;;;;;;26.67;3.10;;;;;;;7.60;62.01;100733.06;5070610;27;99178;-70
2023/02/01 02:17:54;;;;;;;20.73;2.63;;;;;;;7.45;62.17;100738.69;5074393;27;98768;-70
2023/02/01 02:20:40;;;;;;;19.08;3.20;;;;;;;7.16;63.33;100738.44;5073506;27;96678;-71
2023/02/01 02:23:43;;;;;;;29.92;3.88;;;;;;;7.41;62.72;100733.53;5078601;27;96893;-70
2023/02/01 02:26:35;;;;;;;23.02;2.80;;;;;;;7.59;62.51;100725.22;5055421;27;103135;-70
2023/02/01 02:29:46;;;;;;;23.48;2.88;;;;;;;7.78;61.43;100733.53;5072154;27;98985;-69
2023/02/01 02:33:02;;;;;;;31.50;2.70;;;;;;;7.66;61.98;100728.56;5069730;27;97084;-69
2023/02/01 02:35:40;;;;;;;16.65;2.53;;;;;;;7.64;61.11;100717.19;5070367;27;98528;-71
2023/02/01 02:38:16;;;;;;;22.15;4.45;;;;;;;7.81;61.01;100715.06;5074357;27;98939;-69
2023/02/01 02:40:50;;;;;;;24.25;3.13;;;;;;;7.75;61.39;100716.03;5073959;27;99085;-68
2023/02/01 02:49:02;;;;;;;20.70;2.40;;;;;;;7.88;60.98;100698.19;5070477;27;97353;-70
2023/02/01 03:05:33;;;;;;;24.75;2.83;;;;;;;7.79;60.93;100701.94;5062130;27;97548;-69
2023/02/01 03:08:05;;;;;;;19.33;2.92;;;;;;;7.96;60.57;100698.84;5080183;27;96658;-70
2023/02/01 03:10:41;;;;;;;21.02;2.92;;;;;;;7.92;60.61;100703.34;5072863;27;99489;-70
2023/02/01 03:13:11;;;;;;;22.60;3.40;;;;;;;8.07;60.77;100696.84;5065857;27;98956;-70
2023/02/01 03:15:43;;;;;;;27.30;2.78;;;;;;;8.09;59.98;100694.13;5061702;27;97460;-69
2023/02/01 03:18:15;;;;;;;22.20;3.83;;;;;;;8.06;60.72;100686.34;5075786;27;97225;-70
2023/02/01 03:20:47;;;;;;;27.77;3.10;;;;;;;8.15;60.38;100684.31;5068614;27;99836;-70
2023/02/01 03:23:19;;;;;;;15.93;2.88;;;;;;;8.39;59.96;100667.91;5067300;27;100340;-69
2023/02/01 03:25:49;;;;;;;26.92;3.10;;;;;;;8.17;60.13;100677.25;5071547;27;98903;-69
2023/02/01 03:28:21;;;;;;;25.63;3.17;;;;;;;8.19;60.03;100670.19;5077887;27;96903;-70
2023/02/01 03:30:48;;;;;;;30.35;3.30;;;;;;;8.32;59.75;100665.47;5074610;27;99556;-69
2023/02/01 03:33:22;;;;;;;18.17;2.47;;;;;;;8.49;59.31;100662.38;5074584;27;99097;-70
2023/02/01 03:35:56;;;;;;;31.40;3.33;;;;;;;8.39;59.12;100643.34;5066151;27;97619;-69
2023/02/01 03:38:30;;;;;;;18.73;3.13;;;;;;;8.16;60.05;100656.22;5060064;27;98669;-70
2023/02/01 03:41:03;;;;;;;30.10;3.47;;;;;;;8.27;59.80;100649.75;5070090;27;98721;-69
2023/02/01 03:43:34;;;;;;;20.05;2.75;;;;;;;8.33;59.45;100648.78;5065984;27;101073;-69
2023/02/01 03:46:04;;;;;;;28.55;3.47;;;;;;;8.19;59.32;100645.63;5071941;27;97798;-69
2023/02/01 03:48:31;;;;;;;28.45;2.75;;;;;;;8.34;59.44;100647.84;5068370;27;98373;-68
2023/02/01 03:51:01;;;;;;;28.45;3.35;;;;;;;8.39;58.89;100640.72;5075151;27;98942;-70
2023/02/01 03:53:29;;;;;;;34.55;3.67;;;;;;;8.34;59.26;100646.09;5070581;27;102130;-69
2023/02/01 03:55:57;;;;;;;29.05;4.53;;;;;;;8.46;59.14;100644.03;5073712;27;99005;-69
2023/02/01 03:58:24;;;;;;;24.27;3.67;;;;;;;8.32;59.33;100644.44;5069381;27;97500;-70
2023/02/01 04:00:52;;;;;;;22.23;2.83;;;;;;;8.32;59.48;100647.91;5079471;27;98992;-70
2023/02/01 04:03:19;;;;;;;29.50;4.43;;;;;;;8.26;59.22;100642.78;5068782;27;99169;-70
2023/02/01 04:05:45;;;;;;;22.83;2.90;;;;;;;8.29;59.30;100640.06;5072128;27;97212;-71
2023/02/01 04:08:12;;;;;;;25.95;2.88;;;;;;;8.24;59.63;100646.38;5072933;27;98993;-69
2023/02/01 04:10:39;;;;;;;20.02;3.15;;;;;;;8.40;58.80;100642.44;5065702;27;98964;-70
2023/02/01 04:13:06;;;;;;;29.83;3.47;;;;;;;8.30;59.53;100640.94;5070040;27;98860;-70
2023/02/01 04:15:34;;;;;;;27.92;2.85;;;;;;;8.40;58.91;100643.28;5069009;27;97608;-69
2023/02/01 04:18:00;;;;;;;29.33;3.42;;;;;;;8.15;59.95;100638.69;5072301;27;96882;-69
2023/02/01 04:20:27;;;;;;;25.92;3.42;;;;;;;8.33;59.62;100633.00;5067270;27;99178;-70
2023/02/01 04:22:53;;;;;;;26.55;3.35;;;;;;;8.55;58.87;100656.91;5062116;27;99007;-71
2023/02/01 04:25:20;;;;;;;19.83;2.63;;;;;;;8.72;58.04;100637.13;5074792;27;96860;-71
2023/02/01 04:27:48;;;;;;;23.60;3.58;;;;;;;8.62;58.46;100640.91;5069328;27;96886;-69
2023/02/01 04:30:14;;;;;;;20.50;3.17;;;;;;;8.55;58.30;100649.88;5070606;27;99156;-69
2023/02/01 04:32:41;;;;;;;22.95;2.88;;;;;;;8.67;58.39;100641.63;5074147;27;98828;-69
2023/02/01 04:35:08;;;;;;;21.08;2.90;;;;;;;8.47;58.33;100637.88;5072551;27;96774;-70
2023/02/01 04:37:35;;;;;;;37.90;5.47;;;;;;;8.68;58.42;100637.22;5070233;27;96906;-70
2023/02/01 04:40:03;;;;;;;23.90;3.42;;;;;;;8.80;57.69;100623.69;5065740;27;100227;-67
2023/02/01 04:42:29;;;;;;;23.95;3.38;;;;;;;8.52;58.70;100628.94;5066168;27;101257;-67
2023/02/01 04:44:57;;;;;;;34.72;4.38;;;;;;;8.39;59.11;100631.06;5075038;27;98874;-68
2023/02/01 04:47:23;;;;;;;20.48;2.72;;;;;;;8.71;58.65;100632.75;5073078;27;97996;-67
2023/02/01 04:49:50;;;;;;;19.77;2.40;;;;;;;8.85;57.98;100618.28;5075677;27;99440;-67
2023/02/01 04:52:16;;;;;;;25.92;3.15;;;;;;;9.06;57.70;100628.16;5063103;27;99022;-68
2023/02/01 04:54:42;;;;;;;22.60;2.92;;;;;;;8.86;57.65;100615.59;5071344;27;97658;-68
2023/02/01 04:57:09;;;;;;;20.90;3.38;;;;;;;8.75;57.96;100617.69;5072581;27;96771;-67
2023/02/01 04:59:35;;;;;;;19.42;4.35;;;;;;;8.62;58.35;100618.97;5073348;27;98963;-67
2023/02/01 05:02:03;;;;;;;19.85;2.85;;;;;;;9.00;57.39;100615.16;5077915;27;98907;-68
2023/02/01 05:04:29;;;;;;;24.35;3.17;;;;;;;8.85;57.86;100606.00;5072633;27;96998;-67
2023/02/01 05:06:56;;;;;;;23.70;2.78;;;;;;;8.88;57.69;100608.50;5071555;27;96890;-68
2023/02/01 05:09:22;;;;;;;22.88;3.00;;;;;;;8.79;57.52;100604.38;5064764;27;97893;-67
2023/02/01 05:14:32;;;;;;;27.35;3.35;;;;;;;8.86;57.90;100597.16;5066768;27;96920;-67
2023/02/01 05:16:59;;;;;;;29.83;3.05;;;;;;;8.79;57.50;100595.63;5066074;27;98683;-67
2023/02/01 05:19:26;;;;;;;28.77;4.28;;;;;;;8.67;58.10;100588.06;5067178;27;98850;-67
2023/02/01 05:21:53;;;;;;;30.25;3.63;;;;;;;9.10;57.51;100599.03;5065098;27;98872;-67
2023/02/01 05:24:20;;;;;;;25.65;2.78;;;;;;;9.18;56.74;100593.53;5074186;27;97775;-67
2023/02/01 05:26:47;;;;;;;30.67;3.15;;;;;;;9.09;56.61;100585.91;5073928;27;97461;-67
2023/02/01 05:29:14;;;;;;;25.10;3.90;;;;;;;9.28;56.47;100587.03;5076620;27;99013;-70
2023/02/01 05:31:40;;;;;;;35.72;5.30;;;;;;;9.16;56.45;100587.44;5071533;27;99575;-67
2023/02/01 05:34:07;;;;;;;26.65;4.03;;;;;;;8.84;57.53;100582.31;5079817;27;96840;-68
2023/02/01 05:36:35;;;;;;;16.98;2.40;;;;;;;9.10;57.13;100580.59;5068358;27;97779;-67
2023/02/01 05:39:01;;;;;;;28.92;5.10;;;;;;;8.97;56.99;100581.88;5075728;27;98612;-68
2023/02/01 05:41:27;;;;;;;20.20;2.42;;;;;;;8.94;57.51;100578.47;5070923;27;99231;-69
2023/02/01 05:43:54;;;;;;;27.95;3.80;;;;;;;8.87;57.65;100569.03;5067256;27;96826;-68
2023/02/01 05:46:20;;;;;;;27.23;2.95;;;;;;;8.85;57.98;100582.28;5076144;27;97775;-68
2023/02/01 05:48:47;;;;;;;18.55;2.70;;;;;;;8.98;57.57;100574.84;5072899;27;101038;-69
2023/02/01 05:51:13;;;;;;;25.02;3.72;;;;;;;8.88;57.56;100574.25;5072222;27;99993;-69
2023/02/01 05:53:41;;;;;;;28.38;4.45;;;;;;;9.03;57.44;100571.16;5068377;27;97125;-69
2023/02/01 05:56:08;;;;;;;39.13;5.32;;;;;;;8.99;57.60;100569.50;5073112;27;98631;-70
2023/02/01 05:58:34;;;;;;;28.52;3.53;;;;;;;9.03;57.33;100559.75;5068372;27;98864;-70
2023/02/01 06:01:01;;;;;;;29.77;3.50;;;;;;;8.74;57.95;100558.88;5075473;27;99094;-70
2023/02/01 06:03:28;;;;;;;29.58;3.60;;;;;;;8.79;58.11;100556.13;5078147;27;97446;-69
2023/02/01 06:05:54;;;;;;;23.33;3.42;;;;;;;8.70;58.34;100562.53;5079248;27;97213;-69
2023/02/01 06:08:20;;;;;;;34.28;4.47;;;;;;;8.88;58.05;100558.44;5082255;27;99203;-69
2023/02/01 06:10:48;;;;;;;29.33;3.63;;;;;;;9.04;57.78;100557.06;5082301;27;99599;-70
2023/02/01 06:13:15;;;;;;;20.77;3.97;;;;;;;8.97;57.69;100566.06;5074992;27;96796;-70
2023/02/01 06:15:43;;;;;;;28.35;4.93;;;;;;;9.04;58.23;100553.56;5080678;27;96942;-70
2023/02/01 06:18:10;;;;;;;26.38;3.97;;;;;;;8.95;57.92;100553.84;5075339;27;98849;-70
2023/02/01 06:20:36;;;;;;;25.25;3.60;;;;;;;8.87;58.71;100559.34;5082660;27;98654;-70
2023/02/01 06:23:04;;;;;;;22.45;4.10;;;;;;;8.74;59.05;100558.88;5070188;27;96760;-69
2023/02/01 06:25:31;;;;;;;30.52;4.25;;;;;;;8.60;59.91;100561.06;5073324;27;96771;-69
2023/02/01 06:28:05;;;;;;;32.08;3.88;;;;;;;8.92;59.68;100559.22;5068358;27;98809;-70
2023/02/01 06:30:32;;;;;;;20.25;3.13;;;;;;;8.96;58.92;100551.16;5075978;27;98942;-70
2023/02/01 06:32:58;;;;;;;25.58;4.15;;;;;;;8.73;59.48;100553.66;5066466;27;97328;-69
2023/02/01 06:35:26;;;;;;;29.00;4.05;;;;;;;9.00;59.07;100547.50;5072365;27;96847;-69
2023/02/01 06:37:52;;;;;;;25.23;3.08;;;;;;;8.90;59.52;100553.13;5071801;27;99209;-70
2023/02/01 06:40:18;;;;;;;31.38;3.78;;;;;;;8.60;60.23;100555.78;5079700;27;98131;-70
2023/02/01 06:42:45;;;;;;;21.88;3.15;;;;;;;8.49;60.91;100557.03;5072251;27;98804;-71
2023/02/01 06:45:13;;;;;;;24.17;3.17;;;;;;;8.78;59.63;100538.59;5064454;27;97415;-70
2023/02/01 06:47:39;;;;;;;23.92;2.95;;;;;;;8.43;60.43;100552.81;5074390;27;97857;-71
2023/02/01 06:50:07;;;;;;;25.75;3.88;;;;;;;8.63;60.25;100539.03;5074182;27;100310;-70
2023/02/01 06:52:33;;;;;;;24.30;3.15;;;;;;;8.93;58.07;100532.81;5064723;27;97646;-70
2023/02/01 06:55:00;;;;;;;19.60;2.95;;;;;;;8.97;57.79;100528.31;5068876;27;96792;-69
2023/02/01 06:57:30;;;;;;;25.77;3.35;;;;;;;8.92;58.48;100528.47;5066751;27;98987;-69
2023/02/01 06:59:56;;;;;;;19.92;3.50;;;;;;;8.85;58.42;100520.81;5070625;27;101179;-70
2023/02/01 07:02:24;;;;;;;16.55;3.22;;;;;;;8.92;57.89;100525.84;5064991;27;97251;-72
2023/02/01 07:04:51;;;;;;;18.35;2.97;;;;;;;9.05;57.63;100521.88;5074939;27;97238;-70
2023/02/01 07:07:19;;;;;;;22.00;3.05;;;;;;;9.16;57.53;100524.16;5069289;27;98849;-71
2023/02/01 07:09:46;;;;;;;21.75;3.22;;;;;;;9.16;57.05;100524.16;5058818;27;99715;-69
2023/02/01 07:12:12;;;;;;;22.30;2.63;;;;;;;9.26;56.84;100517.66;5061781;27;98841;-70
2023/02/01 07:14:39;;;;;;;23.70;3.60;;;;;;;9.27;56.21;100511.47;5059779;27;98548;-70
2023/02/01 07:17:05;;;;;;;16.75;2.80;;;;;;;9.04;56.87;100514.03;5070809;27;99002;-69
2023/02/01 07:19:33;;;;;;;26.17;2.88;;;;;;;9.31;56.99;100510.47;5066674;27;99824;-70
2023/02/01 07:21:59;;;;;;;30.90;6.65;;;;;;;9.02;57.51;100508.81;5072349;27;96992;-69
2023/02/01 07:24:25;;;;;;;19.73;3.17;;;;;;;8.83;58.31;100512.94;5076646;27;97607;-70
2023/02/01 07:26:52;;;;;;;20.02;2.85;;;;;;;8.91;58.55;100507.44;5072553;27;101347;-69
2023/02/01 07:29:18;;;;;;;19.50;3.55;;;;;;;8.85;58.84;100497.97;5062061;27;98966;-68
2023/02/01 07:31:45;;;;;;;19.95;3.10;;;;;;;8.75;59.09;100494.75;5075905;27;96800;-69
2023/02/01 07:34:11;;;;;;;23.45;3.08;;;;;;;9.02;58.70;100486.84;5070069;27;97565;-69
2023/02/01 07:36:39;;;;;;;30.85;4.30;;;;;;;9.33;57.75;100478.75;5066864;27;98853;-69
2023/02/01 07:39:05;;;;;;;21.55;3.03;;;;;;;9.27;57.75;100489.53;5070695;27;99228;-69
2023/02/01 07:41:32;;;;;;;23.33;3.13;;;;;;;9.11;58.47;100484.78;5080758;27;96884;-71
2023/02/01 07:43:58;;;;;;;17.83;2.65;;;;;;;9.01;59.27;100491.25;5059626;27;97818;-69
2023/02/01 07:46:25;;;;;;;18.25;3.50;;;;;;;8.92;60.05;100494.22;5068246;27;99985;-70
2023/02/01 07:48:51;;;;;;;16.50;2.72;;;;;;;8.56;61.57;100503.28;5073095;27;97738;-69
2023/02/01 07:51:18;;;;;;;21.55;3.05;;;;;;;8.35;63.67;100497.75;5066813;27;96833;-69
2023/02/01 07:53:46;;;;;;;16.15;3.25;;;;;;;8.45;63.56;100492.22;5067964;27;96836;-70
2023/02/01 07:56:22;;;;;;;16.63;2.38;;;;;;;8.60;63.50;100497.84;5075439;27;98885;-68
2023/02/01 07:58:49;;;;;;;12.35;2.60;;;;;;;8.23;64.93;100490.19;5057098;27;98630;-68
2023/02/01 08:01:24;;;;;;;21.67;4.18;;;;;;;8.33;65.18;100491.69;5058471;27;97290;-68
2023/02/01 08:03:52;;;;;;;22.10;2.85;;;;;;;8.12;66.28;100494.94;5038887;27;98611;-69
2023/02/01 08:06:19;;;;;;;18.02;2.83;;;;;;;7.87;67.36;100486.88;5042707;27;99058;-69
2023/02/01 08:08:47;;;;;;;21.70;3.38;;;;;;;8.11;66.97;100490.56;5045664;27;99259;-69
2023/02/01 08:11:14;;;;;;;22.25;2.92;;;;;;;8.24;66.21;100489.28;5034320;27;97933;-69
2023/02/01 08:13:41;;;;;;;18.60;2.95;;;;;;;8.04;67.20;100496.03;5049905;27;96884;-69
2023/02/01 08:16:10;;;;;;;10.80;2.42;;;;;;;8.01;67.21;100489.09;5039525;27;100859;-69
2023/02/01 08:18:38;;;;;;;15.52;2.25;;;;;;;8.15;67.03;100497.44;5036959;27;97614;-70
2023/02/01 08:21:05;;;;;;;25.15;2.60;;;;;;;8.06;67.83;100489.84;5046770;27;97323;-68
2023/02/01 08:23:31;;;;;;;30.45;6.00;;;;;;;8.25;67.03;100496.28;5055292;27;97764;-69
2023/02/01 08:26:07;;;;;;;18.00;3.45;;;;;;;8.23;67.35;100498.09;5043476;27;99470;-69
2023/02/01 08:28:33;;;;;;;15.73;2.88;;;;;;;8.11;67.79;100497.59;5042670;27;98773;-69
2023/02/01 08:31:00;;;;;;;18.17;2.75;;;;;;;8.07;68.30;100486.31;5051995;27;98351;-69
2023/02/01 08:33:32;;;;;;;13.55;2.42;;;;;;;8.09;68.20;100497.63;5046118;27;98699;-69
2023/02/01 08:36:01;;;;;;;14.88;2.53;;;;;;;8.23;68.30;100498.09;5042555;27;99468;-67
2023/02/01 08:38:28;;;;;;;9.52;2.22;;;;;;;8.33;66.96;100496.97;5056171;27;98833;-68
2023/02/01 08:40:55;;;;;;;12.15;2.33;;;;;;;8.13;68.11;100503.69;5042837;27;96847;-69
2023/02/01 08:43:23;;;;;;;14.20;2.25;;;;;;;8.12;68.42;100512.47;5043342;27;97361;-69
2023/02/01 08:45:50;;;;;;;12.27;2.70;;;;;;;7.70;70.17;100514.53;5042679;27;97752;-69
2023/02/01 08:48:19;;;;;;;14.65;3.53;;;;;;;7.66;70.98;100505.88;5051918;27;98963;-68
2023/02/01 08:50:45;;;;;;;16.85;3.20;;;;;;;8.05;70.33;100508.28;5044394;27;97374;-68
2023/02/01 08:53:13;;;;;;;14.82;2.47;;;;;;;8.12;70.15;100504.59;5045152;27;96795;-69
2023/02/01 08:55:40;;;;;;;9.27;2.33;;;;;;;8.16;69.42;100514.97;5054326;27;98656;-68
2023/02/01 08:58:06;;;;;;;12.40;2.85;;;;;;;8.09;69.11;100517.81;5051463;27;98530;-68
2023/02/01 09:00:34;;;;;;;8.05;2.30;;;;;;;7.51;71.56;100527.31;5046802;27;97073;-68
2023/02/01 09:03:00;;;;;;;11.75;2.65;;;;;;;7.71;71.44;100522.41;5038346;27;97569;-69
2023/02/01 09:05:28;;;;;;;8.23;2.50;;;;;;;7.74;70.08;100524.97;5045968;27;97755;-69
2023/02/01 09:07:54;;;;;;;4.88;1.50;;;;;;;7.47;71.44;100523.94;5046474;27;99026;-69
2023/02/01 09:10:20;;;;;;;9.88;2.05;;;;;;;7.72;70.23;100526.75;5050852;27;97344;-68
2023/02/01 09:12:47;;;;;;;11.00;2.78;;;;;;;8.25;68.51;100533.13;5039311;27;96997;-68
2023/02/01 09:15:13;;;;;;;5.43;1.95;;;;;;;7.93;69.08;100541.09;5041660;27;98954;-69
2023/02/01 09:17:43;;;;;;;9.43;1.80;;;;;;;7.62;69.92;100527.88;5050754;27;98888;-70
2023/02/01 09:20:11;;;;;;;7.63;1.67;;;;;;;7.58;69.91;100535.00;5043922;27;96963;-69
2023/02/01 09:22:37;;;;;;;5.22;1.35;;;;;;;7.71;69.33;100542.56;5038651;27;97128;-69
2023/02/01 09:25:04;;;;;;;8.63;1.10;;;;;;;7.84;68.70;100544.81;5038264;27;99208;-68
2023/02/01 09:27:30;;;;;;;6.53;1.95;;;;;;;7.79;69.17;100561.66;5040950;27;98967;-68
2023/02/01 09:29:57;;;;;;;9.50;1.90;;;;;;;8.40;67.61;100552.94;5046800;27;97421;-68
2023/02/01 09:32:24;;;;;;;7.00;1.58;;;;;;;8.15;67.88;100557.97;5057232;27;97143;-68
2023/02/01 09:34:53;;;;;;;9.27;1.95;;;;;;;8.46;67.81;100551.88;5044103;27;97627;-68
2023/02/01 09:37:28;;;;;;;7.70;1.45;;;;;;;7.96;68.77;100567.28;5046854;27;99052;-69
2023/02/01 09:39:54;;;;;;;4.03;1.00;;;;;;;7.94;68.61;100575.22;5041154;27;98934;-68
2023/02/01 09:42:43;;;;;;;5.10;1.27;;;;;;;7.74;68.84;100567.03;5048610;27;98704;-68
2023/02/01 09:45:21;;;;;;;7.88;0.77;;;;;;;7.89;69.46;100578.91;5059445;27;98892;-69
2023/02/01 09:47:52;;;;;;;3.55;1.20;;;;;;;8.07;69.19;100588.94;5049493;27;98723;-69
2023/02/01 09:50:22;;;;;;;7.18;0.85;;;;;;;7.74;68.88;100585.44;5057187;27;97958;-68
2023/02/01 09:52:54;;;;;;;4.63;1.20;;;;;;;7.55;69.39;100587.66;5050824;27;97622;-68
2023/02/01 09:55:28;;;;;;;6.75;1.50;;;;;;;8.04;68.37;100586.38;5043046;27;99486;-69
2023/02/01 09:57:59;;;;;;;5.75;1.10;;;;;;;8.32;66.83;100579.47;5040358;27;98859;-68
2023/02/01 10:00:29;;;;;;;4.97;1.10;;;;;;;8.14;66.46;100579.94;5048221;27;96809;-68
2023/02/01 10:02:56;;;;;;;6.93;0.98;;;;;;;8.24;66.90;100584.06;5046592;27;97388;-69
2023/02/01 10:05:39;;;;;;;3.58;0.70;;;;;;;7.98;67.00;100586.53;5046996;27;99007;-69
2023/02/01 10:08:16;;;;;;;3.58;0.57;;;;;;;7.86;68.49;100586.88;5048109;27;97805;-69
2023/02/01 10:10:48;;;;;;;4.97;1.00;;;;;;;7.96;67.81;100583.09;5043235;27;96826;-69
2023/02/01 10:13:33;;;;;;;7.13;1.13;;;;;;;7.82;68.90;100587.84;5046356;27;97270;-68
2023/02/01 10:16:12;;;;;;;4.82;1.10;;;;;;;8.01;69.36;100589.06;5031281;27;99362;-68
2023/02/01 10:18:58;;;;;;;7.00;1.08;;;;;;;7.98;69.54;100589.19;5038596;27;99884;-68
2023/02/01 10:21:48;;;;;;;4.72;1.00;;;;;;;8.52;67.69;100594.69;5051861;27;97260;-69
2023/02/01 10:24:38;;;;;;;5.85;1.00;;;;;;;8.28;67.23;100596.22;5047911;27;97549;-69
2023/02/01 10:27:13;;;;;;;7.53;0.73;;;;;;;8.44;67.50;100596.69;5039912;27;101150;-69
2023/02/01 10:29:43;;;;;;;10.10;1.27;;;;;;;8.51;66.86;100584.19;5059314;27;98130;-68
2023/02/01 10:32:14;;;;;;;7.20;1.08;;;;;;;8.37;66.49;100590.72;5053849;27;99183;-69
2023/02/01 10:34:41;;;;;;;9.35;1.67;;;;;;;8.59;66.52;100590.09;5049250;27;98315;-68
2023/02/01 10:37:19;;;;;;;10.50;1.13;;;;;;;8.85;65.54;100582.28;5038155;27;98826;-69
2023/02/01 10:39:47;;;;;;;5.93;1.38;;;;;;;8.89;65.50;100586.53;5044306;27;99272;-68
2023/02/01 10:42:14;;;;;;;7.38;1.30;;;;;;;8.72;65.62;100596.72;5042443;27;97355;-68
2023/02/01 10:44:45;;;;;;;3.88;0.82;;;;;;;8.36;66.47;100598.66;5038989;27;99784;-68
2023/02/01 10:47:14;;;;;;;6.80;1.17;;;;;;;8.59;65.98;100600.63;5050465;27;99302;-68
2023/02/01 10:49:48;;;;;;;7.32;0.98;;;;;;;8.56;67.26;100592.81;5042161;27;99240;-69
2023/02/01 10:52:20;;;;;;;3.13;0.75;;;;;;;8.17;67.29;100598.28;5046623;27;96816;-68
2023/02/01 10:54:47;;;;;;;9.15;0.98;;;;;;;8.18;67.49;100601.78;5044220;27;98504;-69
2023/02/01 10:57:22;;;;;;;7.38;2.42;;;;;;;8.39;67.41;100593.31;5049857;27;99658;-70
2023/02/01 10:59:48;;;;;;;4.80;1.60;;;;;;;8.45;66.78;100602.81;5050638;27;99021;-69
2023/02/01 11:02:26;;;;;;;7.32;1.40;;;;;;;8.36;67.50;100593.41;5051549;27;99457;-70
2023/02/01 11:05:00;;;;;;;8.98;0.98;;;;;;;8.61;68.11;100583.00;5042751;27;97756;-70
2023/02/01 11:07:29;;;;;;;9.35;1.13;;;;;;;8.53;67.33;100575.34;5043571;27;97756;-70
2023/02/01 11:09:57;;;;;;;10.88;1.02;;;;;;;8.55;67.61;100578.78;5040336;27;98845;-70
2023/02/01 11:12:32;;;;;;;5.15;0.98;;;;;;;8.90;66.77;100574.22;5051018;27;96752;-71
2023/02/01 11:15:02;;;;;;;8.07;1.50;;;;;;;9.07;65.76;100572.75;5051671;27;98911;-70
2023/02/01 11:17:34;;;;;;;5.97;1.40;;;;;;;9.10;65.59;100566.53;5040896;27;98979;-72
2023/02/01 11:20:03;;;;;;;9.27;1.48;;;;;;;8.97;66.17;100571.34;5044579;27;97321;-70
2023/02/01 11:22:31;;;;;;;7.45;1.60;;;;;;;9.30;65.78;100560.63;5051781;27;98415;-70
2023/02/01 11:25:00;;;;;;;7.60;1.50;;;;;;;9.35;65.08;100569.22;5055341;27;96864;-70
2023/02/01 11:27:27;;;;;;;7.15;1.75;;;;;;;9.52;64.06;100575.66;5042950;27;101683;-71
2023/02/01 11:29:59;;;;;;;9.13;1.75;;;;;;;9.01;65.61;100556.28;5050865;27;99225;-69
2023/02/01 11:32:26;;;;;;;10.80;1.90;;;;;;;9.50;65.01;100558.19;5046415;27;96883;-71
2023/02/01 11:34:55;;;;;;;11.32;1.58;;;;;;;9.03;65.82;100547.44;5050968;27;97878;-72
2023/02/01 11:37:26;;;;;;;12.85;1.50;;;;;;;9.47;65.07;100543.31;5047624;27;98637;-72
2023/02/01 11:39:58;;;;;;;13.55;1.55;;;;;;;9.75;63.46;100543.22;5049883;27;101153;-71
2023/02/01 11:42:27;;;;;;;10.65;1.67;;;;;;;9.75;63.75;100539.72;5045879;27;97014;-70
2023/02/01 11:45:17;;;;;;;12.98;1.50;;;;;;;9.53;63.68;100529.03;5044638;27;98313;-70
2023/02/01 11:47:45;;;;;;;11.63;2.88;;;;;;;9.65;63.98;100525.13;5038162;27;99381;-70
2023/02/01 11:50:17;;;;;;;9.52;2.00;;;;;;;9.72;63.42;100522.19;5047709;27;101205;-70
2023/02/01 11:52:58;;;;;;;7.03;1.88;;;;;;;10.08;62.37;100506.81;5056416;27;97573;-70
2023/02/01 11:55:46;;;;;;;10.60;2.05;;;;;;;10.03;61.77;100518.47;5045988;27;97470;-70
2023/02/01 11:58:23;;;;;;;7.78;1.42;;;;;;;9.87;61.14;100516.38;5047444;27;98683;-71
2023/02/01 12:01:07;;;;;;;10.38;1.55;;;;;;;10.16;60.69;100509.19;5045557;27;99284;-69